Hale Center, Texas
Current Conditions -  °F | °C
As of 5:55 PM on Friday 28 Nov 2014 (Local Time) from KPVW Reporting Station
Clear Clear  
Wind Chill: 64°   Ceiling: Unl
Heat Index: 64°   Visibility: 10mi
Dew Point: 21°   Wind: 8mph
Humidity: 19%   Direction: 220°SW
Pressure: 29.94"   Gusts: NA
Location:  34.06°N, 101.84°W
Report Text: KPVW 282355Z AUTO 22007KT 10SM CLR 18/M06 A2994 RMK AO2 T01771061 10266 20177
Loading
Personal Weather Stations






























Interactive Weather Map New forecast layout! Learn more

10-Day Weather Forecast

Advertisements
Track Severe Weather on mobile